General Heriberto Jara International Airport
MMVR : now visible

Aeroporto :











RITROVATECI SU...

 
LOGIN :

Iscrizione | Disclaimer

   EN    FR    IT 

 









Sommario :    VFR   VFR Marginale   IFR   IFR Intensivo   IFR Molto Intensivo
Visibilità : 
Base nubi : 
>= 8 km
>= 3000ft
5 / 8 km
1000 / 3000 ft
1500m / 5 km
500 / 1000 ft
800 / 1500m
200 / 500 ft
< 800m
< 200 ft
Simboli :   Temporali  Nebbia  Neve Forte  Precipitazioni Forti  Vento > 20 kt






- Altitudine del aeroporto : 90 ft
- Codice IATA : VER


MMVR - General Heriberto Jara International

ULTIMO METAR :
  • 280444Z 00000KT 7SM OVC030 18/11 A3035 RMK 8/5// HZY

METARs OBSOLETI :
  • 280344Z 36006KT 7SM OVC030 19/12 A3035 RMK 8/5// HZY
  • 280246Z 01008KT 7SM BKN030 BKN080 19/12 A3033 RMK SLP245 52015 916 8/550 HZY
  • 280145Z 01006KT 7SM FEW030 SCT080 19/11 A3031 RMK 8/530 HZY

TAF AMD TAF MMVR
Valido dal 27 a 21 ore il 28 a 18 ore UTC


272116Z 2721/2818 02010KT P6SM SCT020 SCT070 TX23/2722Z TN18/2812Z
BECMG 2802/2803 35008KT BKN015
FM280500 32010KT 5SM HZ OVC010
BECMG 2810/2811 33015KT 3SM BR HZ
TEMPO 2811/2815 2SM -DZ BR OVC006



MetMap, La meteo Aeronautica in un colpo d'occhio ! - Copyright ORBIFLY Dicembre 2007 - Disclaimer

ORBIFLY MET'MAP TEAM :

Programmazione e sviluppo : Alexandra Zaïnal
Concezione : Baudouin d'Aumeries
Aiuto per la programmazione : Marc-Olivier Méhu
Supporto tecnico e logistico : Manuel Goepfert
Aiuto per la traduzione : Arnaldo La Scala

Contatto : metmap@orbifly.com




FONTI E CREDITI :

   NOAA       Earth
Advisory